Time;durP1;ratioP1;P1;durP2;ratioP2;P2;SDS_P1;SDS_P2;PMS_P1;PMS_P2;Temp;Humidity;BMP_temperature;BMP_pressure;BME280_temperature;BME280_humidity;BME280_pressure;Samples;Min_cycle;Max_cycle;Signal;HPM_P1;HPM_P2
2023/06/12 08:45:25;;;;;;;7.25;2.35;;;;;;;21.65;43.05;100401.12;5578244;31;247398;-56
2023/06/12 08:48:29;;;;;;;6.18;2.30;;;;;;;21.64;39.19;100386.69;5511685;31;33191;-55
2023/06/12 08:52:09;;;;;;;6.85;2.25;;;;;;;21.63;40.10;100398.78;5497483;32;33687;-55
2023/06/12 08:55:16;;;;;;;4.53;1.90;;;;;;;21.56;38.41;100398.59;5490905;32;33842;-54
2023/06/12 08:58:18;;;;;;;6.15;2.42;;;;;;;21.56;38.64;100393.94;5501561;32;33579;-56
2023/06/12 09:01:21;;;;;;;7.45;2.53;;;;;;;21.67;42.46;100399.63;5507838;32;33545;-56
2023/06/12 09:04:31;;;;;;;3.97;1.95;;;;;;;21.65;38.24;100406.59;5508061;32;33837;-56
2023/06/12 09:07:38;;;;;;;11.40;2.08;;;;;;;21.64;38.12;100399.56;5507288;32;33153;-56
2023/06/12 09:10:40;;;;;;;4.82;2.03;;;;;;;21.64;37.11;100397.63;5508128;32;33763;-56
2023/06/12 09:13:43;;;;;;;5.70;2.00;;;;;;;21.87;39.02;100405.94;5506946;32;34250;-56
2023/06/12 09:16:45;;;;;;;4.53;2.40;;;;;;;21.72;39.77;100402.09;5507887;32;33690;-56
2023/06/12 09:19:48;;;;;;;7.80;2.42;;;;;;;21.68;37.45;100395.75;5506490;32;33671;-56
2023/06/12 09:22:51;;;;;;;7.72;2.58;;;;;;;21.86;38.34;100398.91;5561026;31;33540;-56
2023/06/12 09:25:55;;;;;;;7.47;2.35;;;;;;;21.86;43.05;100389.94;5508135;32;34294;-56
2023/06/12 09:29:16;;;;;;;4.37;2.33;;;;;;;21.96;38.18;100392.87;5508536;32;33870;-56
2023/06/12 09:32:19;;;;;;;5.90;2.28;;;;;;;21.84;38.09;100392.22;5508151;32;34336;-56
2023/06/12 09:35:21;;;;;;;4.10;2.40;;;;;;;21.89;40.75;100400.94;5507798;32;34400;-56
2023/06/12 09:38:33;;;;;;;3.22;1.90;;;;;;;21.87;40.27;100392.28;5507490;32;33698;-56
2023/06/12 09:41:35;;;;;;;6.50;2.83;;;;;;;21.92;37.78;100394.75;5506907;32;33617;-56
2023/06/12 09:44:39;;;;;;;7.85;2.47;;;;;;;21.86;38.56;100395.38;5499607;32;33643;-56
2023/06/12 09:47:43;;;;;;;4.07;2.00;;;;;;;21.94;46.31;100395.16;5507826;32;33573;-56
2023/06/12 09:50:46;;;;;;;4.65;2.10;;;;;;;21.90;40.42;100399.78;5506550;32;33698;-56
2023/06/12 09:53:51;;;;;;;2.72;1.98;;;;;;;21.91;41.60;100393.16;5504774;32;33644;-56
2023/06/12 09:56:56;;;;;;;6.07;2.20;;;;;;;22.02;39.74;100396.13;5507593;32;34487;-56
2023/06/12 10:00:02;;;;;;;3.45;2.30;;;;;;;21.94;39.60;100386.19;5507180;32;33725;-56
2023/06/12 10:03:15;;;;;;;3.92;2.20;;;;;;;21.83;39.41;100380.50;5506106;32;33860;-56
2023/06/12 10:06:21;;;;;;;4.70;1.95;;;;;;;21.96;41.63;100401.06;5507953;32;34362;-56
2023/06/12 10:09:27;;;;;;;4.28;2.08;;;;;;;22.04;40.46;100382.91;5507618;32;34380;-57
2023/06/12 10:12:31;;;;;;;8.77;2.40;;;;;;;22.03;40.75;100387.59;5507672;32;34429;-57
2023/06/12 10:15:34;;;;;;;4.95;2.20;;;;;;;22.11;42.05;100385.78;5507112;32;33727;-57
2023/06/12 10:18:38;;;;;;;10.43;2.17;;;;;;;22.23;40.05;100390.38;5504134;32;34351;-57
2023/06/12 10:21:41;;;;;;;3.85;2.25;;;;;;;22.23;40.37;100391.16;5504830;32;34377;-58
2023/06/12 10:24:45;;;;;;;5.93;2.17;;;;;;;22.22;39.94;100391.53;5508215;32;34366;-58
2023/06/12 10:27:48;;;;;;;6.65;2.90;;;;;;;22.21;44.42;100387.19;5503853;32;33722;-57
2023/06/12 10:31:11;;;;;;;7.80;2.92;;;;;;;22.12;39.37;100373.72;5498055;32;33869;-57
2023/06/12 10:34:15;;;;;;;4.90;2.25;;;;;;;22.19;44.44;100375.84;5503646;32;33692;-57
2023/06/12 10:37:39;;;;;;;6.15;2.40;;;;;;;22.31;41.25;100385.81;5497856;32;34171;-57
2023/06/12 10:40:42;;;;;;;3.92;2.25;;;;;;;22.35;41.78;100373.03;5489465;32;34403;-57
2023/06/12 10:43:51;;;;;;;14.00;3.20;;;;;;;22.26;40.11;100374.03;5488029;32;33816;-57
2023/06/12 10:47:02;;;;;;;6.07;2.35;;;;;;;22.33;41.29;100376.13;5500301;32;33230;-57
2023/06/12 10:50:05;;;;;;;5.35;2.20;;;;;;;22.39;42.92;100365.72;5502529;32;33700;-58
2023/06/12 10:53:13;;;;;;;4.97;2.30;;;;;;;22.27;37.25;100361.19;5506785;32;33390;-57
2023/06/12 10:56:20;;;;;;;4.62;2.33;;;;;;;22.26;38.55;100362.34;5506915;31;33752;-57
2023/06/12 10:59:35;;;;;;;3.28;2.20;;;;;;;22.36;45.47;100359.03;5491222;32;34540;-59
2023/06/12 11:02:41;;;;;;;5.07;2.22;;;;;;;22.37;40.38;100355.13;5496884;31;33577;-57
2023/06/12 11:05:47;;;;;;;;;;;;;;;22.32;40.80;100347.25;5493932;32;34819;-58
2023/06/12 11:08:50;;;;;;;8.85;2.45;;;;;;;22.35;42.86;100352.00;5490009;32;33903;-57
2023/06/12 11:11:52;;;;;;;5.70;2.33;;;;;;;22.42;40.01;100349.41;5505306;32;33722;-58
2023/06/12 11:14:55;;;;;;;5.80;2.00;;;;;;;22.41;40.51;100347.00;5505205;32;33631;-57
2023/06/12 11:18:03;;;;;;;4.50;2.12;;;;;;;22.43;37.93;100352.91;5503168;32;33709;-56
2023/06/12 11:21:07;;;;;;;6.57;2.15;;;;;;;22.46;37.50;100346.72;5500610;32;33089;-57
2023/06/12 11:24:11;;;;;;;7.75;2.40;;;;;;;22.46;38.56;100335.81;5500993;32;33687;-56
2023/06/12 11:27:14;;;;;;;5.70;1.83;;;;;;;22.45;37.71;100336.94;5505424;32;33614;-57
2023/06/12 11:30:16;;;;;;;5.57;2.40;;;;;;;22.45;38.98;100326.81;5504618;32;33713;-57
2023/06/12 11:33:34;;;;;;;9.07;2.00;;;;;;;22.47;39.52;100335.44;5498823;32;34503;-56
2023/06/12 11:36:37;;;;;;;5.07;2.25;;;;;;;22.34;41.72;100334.00;5495394;31;33488;-56
2023/06/12 11:39:42;;;;;;;4.00;2.17;;;;;;;22.36;37.61;100325.47;5496564;32;34323;-56
2023/06/12 11:42:47;;;;;;;33.75;5.35;;;;;;;22.41;38.28;100334.12;5492710;31;34419;-56
2023/06/12 11:45:52;;;;;;;5.30;2.25;;;;;;;22.48;40.94;100334.31;5505211;32;33583;-57
2023/06/12 11:48:58;;;;;;;2.62;1.87;;;;;;;22.69;41.76;100330.38;5500006;32;33614;-56
2023/06/12 11:52:06;;;;;;;5.90;2.17;;;;;;;22.62;40.12;100331.03;5504537;32;34582;-56
2023/06/12 11:55:14;;;;;;;3.40;2.10;;;;;;;22.58;38.00;100329.38;5496679;32;33737;-58
2023/06/12 11:58:20;;;;;;;4.90;1.85;;;;;;;22.60;36.10;100329.81;5486622;32;33633;-56
2023/06/12 12:01:25;;;;;;;4.68;2.47;;;;;;;22.55;35.52;100330.91;5504652;32;33709;-56
2023/06/12 12:04:27;;;;;;;8.27;2.50;;;;;;;22.64;38.31;100334.19;5498536;32;33411;-56
2023/06/12 12:07:31;;;;;;;2.90;2.28;;;;;;;22.61;36.32;100329.44;5500111;32;33672;-56
2023/06/12 12:10:44;;;;;;;4.40;2.30;;;;;;;22.62;35.87;100316.59;5503574;32;34313;-57
2023/06/12 12:13:51;;;;;;;3.55;2.20;;;;;;;22.60;36.16;100313.41;5484296;32;33192;-56
2023/06/12 12:17:03;;;;;;;3.12;2.08;;;;;;;22.62;38.96;100325.56;5498225;32;34421;-56
2023/06/12 12:20:13;;;;;;;4.25;1.90;;;;;;;22.57;36.98;100320.38;5507699;32;33222;-56
2023/06/12 12:23:16;;;;;;;7.68;2.28;;;;;;;22.63;36.70;100318.16;5495488;32;34021;-56
2023/06/12 12:26:18;;;;;;;187.52;17.23;;;;;;;22.66;37.28;100318.22;5504088;32;33664;-56
2023/06/12 12:29:21;;;;;;;4.00;1.90;;;;;;;22.74;32.92;100319.91;5506628;32;33355;-57
2023/06/12 12:32:24;;;;;;;5.40;2.20;;;;;;;22.82;29.81;100304.44;5507188;32;33899;-56
2023/06/12 12:35:26;;;;;;;7.05;2.00;;;;;;;22.82;31.18;100304.44;5498141;32;33697;-56
2023/06/12 12:38:28;;;;;;;2.55;1.90;;;;;;;22.71;29.58;100311.66;5495471;31;33760;-55
2023/06/12 12:41:32;;;;;;;3.05;1.95;;;;;;;22.72;30.52;100314.03;5496420;32;33603;-55
2023/06/12 12:44:35;;;;;;;7.05;2.35;;;;;;;22.80;34.54;100306.75;5498290;32;33619;-56
2023/06/12 12:47:57;;;;;;;3.50;2.12;;;;;;;22.82;28.13;100307.19;5502297;32;33513;-55
2023/06/12 12:51:00;;;;;;;2.67;1.83;;;;;;;22.85;26.51;100302.94;5494214;31;33640;-56
2023/06/12 12:54:12;;;;;;;4.47;2.00;;;;;;;22.72;29.50;100297.66;5493927;32;33686;-56
2023/06/12 12:57:14;;;;;;;3.80;2.17;;;;;;;22.79;33.34;100298.91;5500773;32;33260;-55
2023/06/12 13:00:18;;;;;;;5.30;2.20;;;;;;;22.82;31.70;100303.66;5494070;32;34285;-55
2023/06/12 13:03:21;;;;;;;9.23;2.20;;;;;;;22.87;34.09;100304.13;5503209;32;34272;-56
2023/06/12 13:06:24;;;;;;;3.58;1.90;;;;;;;22.84;31.60;100293.91;5502450;32;34386;-55
2023/06/12 13:09:26;;;;;;;4.32;2.25;;;;;;;23.06;31.80;100288.84;5508590;32;33221;-54
2023/06/12 13:12:28;;;;;;;3.53;2.00;;;;;;;23.02;31.28;100296.22;5503421;32;33761;-55
2023/06/12 13:15:30;;;;;;;4.70;2.05;;;;;;;22.98;31.03;100290.69;5496209;32;33878;-55
2023/06/12 13:18:33;;;;;;;4.12;2.20;;;;;;;23.03;32.50;100295.03;5506307;32;33020;-56
2023/06/12 13:21:35;;;;;;;4.65;1.95;;;;;;;23.04;32.23;100289.19;5508530;32;33821;-55
2023/06/12 13:24:38;;;;;;;4.07;2.17;;;;;;;23.13;36.26;100286.22;5508126;32;33851;-55
2023/06/12 13:27:40;;;;;;;4.93;3.28;;;;;;;23.13;30.52;100286.22;5506653;32;34329;-55
2023/06/12 13:30:43;;;;;;;6.22;2.30;;;;;;;23.18;27.99;100288.66;5506389;32;33705;-56
2023/06/12 13:33:45;;;;;;;3.28;2.22;;;;;;;23.21;29.74;100285.16;5506936;32;33826;-56
2023/06/12 13:36:47;;;;;;;3.00;2.00;;;;;;;23.22;28.82;100286.75;5505927;32;34545;-54
2023/06/12 13:39:50;;;;;;;5.80;2.40;;;;;;;23.10;27.15;100276.78;5502385;32;33787;-56
2023/06/12 13:42:53;;;;;;;5.35;2.20;;;;;;;23.14;29.09;100272.16;5482702;31;34597;-56
2023/06/12 13:45:57;;;;;;;3.87;2.10;;;;;;;23.16;31.66;100280.00;5493402;32;33919;-55
2023/06/12 13:49:02;;;;;;;5.20;2.37;;;;;;;23.25;33.74;100277.81;5493293;32;33648;-55
2023/06/12 13:52:07;;;;;;;3.50;2.17;;;;;;;23.16;30.43;100274.53;5472731;32;33894;-56
2023/06/12 13:55:10;;;;;;;6.18;2.50;;;;;;;23.19;30.82;100271.88;5486844;32;33670;-54
2023/06/12 13:58:12;;;;;;;4.10;2.00;;;;;;;23.26;32.29;100271.19;5497374;32;33342;-55
2023/06/12 14:01:15;;;;;;;5.53;2.00;;;;;;;23.29;27.91;100264.97;5503566;32;33616;-55
2023/06/12 14:04:17;;;;;;;3.50;2.37;;;;;;;23.25;29.81;100261.41;5502056;32;33692;-55
2023/06/12 14:07:20;;;;;;;5.20;2.08;;;;;;;23.26;29.06;100260.25;5504205;32;33696;-55
2023/06/12 14:10:23;;;;;;;7.87;2.00;;;;;;;23.32;27.77;100261.50;5474586;32;33736;-55
2023/06/12 14:13:25;;;;;;;5.15;2.30;;;;;;;23.32;27.15;100266.97;5503514;32;34242;-54
2023/06/12 14:16:28;;;;;;;3.80;2.47;;;;;;;23.42;30.98;100260.84;5504145;32;34365;-54
2023/06/12 14:19:30;;;;;;;3.50;1.98;;;;;;;23.25;27.58;100261.41;5504474;32;34613;-56
2023/06/12 14:22:33;;;;;;;4.18;2.00;;;;;;;23.16;29.76;100267.13;5504691;32;33952;-56
2023/06/12 14:25:35;;;;;;;7.62;2.25;;;;;;;23.21;34.04;100268.75;5498906;32;33609;-55
2023/06/12 14:28:39;;;;;;;3.62;1.80;;;;;;;23.23;31.47;100269.19;5505513;32;34322;-55
2023/06/12 14:31:41;;;;;;;3.60;2.15;;;;;;;23.21;33.13;100263.28;5491074;32;34542;-56
2023/06/12 14:34:44;;;;;;;6.15;2.22;;;;;;;23.32;33.91;100264.25;5504361;32;33772;-55
2023/06/12 14:37:46;;;;;;;4.62;2.22;;;;;;;23.30;35.56;100261.06;5496653;32;34283;-55
2023/06/12 14:40:49;;;;;;;8.95;2.10;;;;;;;23.30;35.72;100263.03;5472990;32;33836;-55
2023/06/12 14:43:51;;;;;;;4.70;2.37;;;;;;;23.27;32.77;100264.53;5495750;32;33325;-55
2023/06/12 14:46:54;;;;;;;3.37;2.20;;;;;;;23.36;34.71;100262.34;5505154;32;33617;-57
2023/06/12 14:49:56;;;;;;;8.30;3.03;;;;;;;23.35;33.15;100255.28;5499743;32;34394;-56
2023/06/12 14:52:58;;;;;;;13.05;2.40;;;;;;;23.34;33.75;100253.69;5490472;32;33774;-56
2023/06/12 14:56:02;;;;;;;7.32;2.17;;;;;;;23.35;35.91;100259.97;5488108;31;33901;-56
2023/06/12 14:59:05;;;;;;;6.78;2.42;;;;;;;23.39;34.30;100253.41;5494065;32;33928;-56
2023/06/12 15:02:07;;;;;;;6.00;1.92;;;;;;;23.46;37.04;100266.38;5502461;32;33577;-56
2023/06/12 15:05:09;;;;;;;4.90;2.12;;;;;;;23.40;34.24;100257.69;5504073;32;34188;-56
2023/06/12 15:08:12;;;;;;;4.22;2.20;;;;;;;23.41;33.14;100255.75;5502038;32;34379;-56
2023/06/12 15:11:15;;;;;;;4.10;2.30;;;;;;;23.45;33.97;100265.59;5500902;32;34306;-56
2023/06/12 15:14:17;;;;;;;10.02;2.85;;;;;;;23.44;31.23;100263.22;5506365;32;34387;-56
2023/06/12 15:17:19;;;;;;;5.62;2.03;;;;;;;23.42;33.89;100271.03;5493901;32;34190;-56
2023/06/12 15:20:22;;;;;;;15.20;1.95;;;;;;;23.33;31.58;100260.34;5493569;32;33428;-56
2023/06/12 15:23:24;;;;;;;6.78;2.17;;;;;;;23.28;34.17;100260.66;5497811;32;33259;-56
2023/06/12 15:26:27;;;;;;;3.70;1.98;;;;;;;23.29;32.63;100262.25;5488466;32;34442;-56
2023/06/12 15:29:29;;;;;;;4.18;1.98;;;;;;;23.29;33.32;100264.97;5492695;32;34324;-56
2023/06/12 15:32:32;;;;;;;2.85;2.12;;;;;;;23.19;32.29;100266.41;5496443;32;33662;-56
2023/06/12 15:35:34;;;;;;;4.20;2.10;;;;;;;23.29;32.96;100273.19;5504846;32;34129;-56
2023/06/12 15:38:47;;;;;;;5.82;2.20;;;;;;;23.28;31.54;100266.12;5498968;32;34396;-56
2023/06/12 15:41:50;;;;;;;4.90;2.50;;;;;;;23.23;31.00;100271.13;5498848;32;34083;-58
